WARNING - Please set your current conddition source. Defaulted to metar

Welkom op de weersite van Veghel e.o.

De droogte lijkt nu voorbij.

Het tekort is op 12 juli rijkelijk aangevuld.
Een zeer extreem natte dag met rond 13.00 uur al 51 mm in de regenmeter.

Door storing staat nu een andere versie online waarin nog enkele fouten zitten of ontbrekende onderdelen.

Deze zullen zo spoedig mogelijk worden opgelost


Webcam Veghel  Webcam Veghel


Onweer radar Meer informatie blitzortung!


Regen radar Meer informatie rain snow radar


U vindt ons ook hier:

Het Weer Aktueel

European Weather Network

Weather Underground

Benelux Weer Netwerk

AWEKAS



Het weer levert geen direct gevaar op.    Er zijn geen waarschuwingen afgegeven.

METAR rapporten vliegvelden

   
EHAM - Amsterdam
Gewijzigd: 25-09-2017 16:55
Gedeeltelijk bewolkt  
Gedeeltelijk bewolkt  
   Wind: ONO 16.7 km/h
Wind: ONO 16.7 km/h
Temperatuur: 17°C
Dauwpunt: 13°C
Vochtigheid: 77%
Barometer: 1021 hPa
Bewolking: Partly Cloudy
Zicht: meer dan 10 km
Bewolking: Licht bewolkt 701 m,
Gedeeltelijk bewolkt 1310.6 m
EHAM 251455Z 06009KT 9999 FEW023 SCT043 17/13 Q1021 NOSIG
EHEH - Eindhoven
Gewijzigd: 25-09-2017 16:55
Helder  
Helder  
   Wind: ONO 14.8 km/h
Wind: ONO 14.8 km/h
Temperatuur: 19°C
Dauwpunt: 12°C
Vochtigheid: 64%
Barometer: 1020 hPa
Bewolking: Clear
Zicht: meer dan 10 km
Bewolking: Helder m
EHEH 251455Z AUTO 06008KT 360V120 9999 NCD 19/12 Q1020 BLU 07008KT 9999 SCT025
EHGR - Gilze/Rijen
Gewijzigd: 25-09-2017 16:55
Nevel, Licht bewolkt  
Nevel, Licht bewolkt  
   Wind: ONO 13 km/h
Wind: ONO 13 km/h
Temperatuur: 18°C
Dauwpunt: 13°C
Vochtigheid: 73%
Barometer: 1020 hPa
Bewolking: Few Clouds
Zicht: 9 km
Bewolking: Licht bewolkt 701 m
EHGR 251455Z AUTO 06007KT 010V110 9000 HZ FEW023 18/13 Q1020 BLU
EHBK - Maastricht
Gewijzigd: 25-09-2017 16:55
Grotendeels bewolkt  
Grotendeels bewolkt  
   Wind: ONO 13 km/h
Wind: ONO 13 km/h
Temperatuur: 19°C
Dauwpunt: 11°C
Vochtigheid: 60%
Barometer: 1019 hPa
Bewolking: Mostly Cloudy
Zicht: meer dan 10 km
Bewolking: Grotendeels bewolkt 1371.6 m
EHBK 251455Z AUTO 06007KT 020V080 9999 BKN045 19/11 Q1019 NOSIG
EHVK - Volkel
Gewijzigd: 25-09-2017 16:55
Bewolking  
Bewolking  
   Wind: NO 13 km/h
Wind: NO 13 km/h
Temperatuur: 18°C
Dauwpunt: 13°C
Vochtigheid: 73%
Barometer: 1020 hPa
Bewolking: Overcast
Zicht: meer dan 10 km
Bewolking: Licht bewolkt 853.4 m,
Bewolking 1493.5 m
EHVK 251455Z AUTO 05007KT 030V090 9999 FEW028 OVC049 18/13 Q1020 BLU
EHFS - Vlissingen
Gewijzigd: 25-09-2017 16:55
Licht bewolkt  
Licht bewolkt  
   Wind: NO 16.7 km/h
Wind: NO 16.7 km/h
Temperatuur: 18°C
Dauwpunt: 14°C
Vochtigheid: 78%
Barometer: 1019 hPa
Bewolking: Few Clouds
Zicht: 8 km
Bewolking: Licht bewolkt 548.6 m
EHFS 251455Z AUTO 05009KT 020V100 8000 FEW018/// 18/14 Q1019

Script ontwikkeld door  Saratoga-weather.org Aangepast voor de template door  Weerstation Leuven

Apparatuur in gebruik:

Weerstation
Davis VP2

Weerprogramma
WeatherLink

Weercomputer
Sponsor

Webleverancier
My provider

Davis VP2

WeatherLink

Sponsor

My provider